sensor_id;sensor_type;location;lat;lon;timestamp;temperature;humidity
2409;DHT22;8463;48.094;7.970;2022-08-01T00:02:06;23.00;13.00
2409;DHT22;8463;48.094;7.970;2022-08-01T00:04:31;23.00;13.60
2409;DHT22;8463;48.094;7.970;2022-08-01T00:06:57;22.90;13.20
2409;DHT22;8463;48.094;7.970;2022-08-01T00:09:23;22.90;13.80
2409;DHT22;8463;48.094;7.970;2022-08-01T00:11:48;22.90;13.10
2409;DHT22;8463;48.094;7.970;2022-08-01T00:14:14;22.90;13.50
2409;DHT22;8463;48.094;7.970;2022-08-01T00:16:39;22.90;13.30
2409;DHT22;8463;48.094;7.970;2022-08-01T00:19:05;22.80;13.20
2409;DHT22;8463;48.094;7.970;2022-08-01T00:21:31;22.80;13.70
2409;DHT22;8463;48.094;7.970;2022-08-01T00:23:56;22.80;13.40
2409;DHT22;8463;48.094;7.970;2022-08-01T00:26:22;22.70;14.10
2409;DHT22;8463;48.094;7.970;2022-08-01T00:28:48;22.70;13.60
2409;DHT22;8463;48.094;7.970;2022-08-01T00:31:13;22.60;13.90
2409;DHT22;8463;48.094;7.970;2022-08-01T00:33:39;22.60;14.00
2409;DHT22;8463;48.094;7.970;2022-08-01T00:36:05;22.50;14.10
2409;DHT22;8463;48.094;7.970;2022-08-01T00:38:30;22.60;14.50
2409;DHT22;8463;48.094;7.970;2022-08-01T00:40:56;22.50;14.70
2409;DHT22;8463;48.094;7.970;2022-08-01T00:43:22;22.40;14.60
2409;DHT22;8463;48.094;7.970;2022-08-01T00:45:48;22.40;14.70
2409;DHT22;8463;48.094;7.970;2022-08-01T00:48:13;22.30;15.00
2409;DHT22;8463;48.094;7.970;2022-08-01T00:50:39;22.30;15.60
2409;DHT22;8463;48.094;7.970;2022-08-01T00:53:05;22.20;15.60
2409;DHT22;8463;48.094;7.970;2022-08-01T00:55:31;22.20;15.40
2409;DHT22;8463;48.094;7.970;2022-08-01T00:57:57;22.30;15.60
2409;DHT22;8463;48.094;7.970;2022-08-01T01:00:24;22.10;15.50
2409;DHT22;8463;48.094;7.970;2022-08-01T01:02:50;22.00;15.40
2409;DHT22;8463;48.094;7.970;2022-08-01T01:05:16;22.00;15.50
2409;DHT22;8463;48.094;7.970;2022-08-01T01:07:59;22.00;15.60
2409;DHT22;8463;48.094;7.970;2022-08-01T01:13:09;22.10;15.50
2409;DHT22;8463;48.094;7.970;2022-08-01T01:15:57;22.00;15.50
2409;DHT22;8463;48.094;7.970;2022-08-01T01:18:28;22.00;15.40
2409;DHT22;8463;48.094;7.970;2022-08-01T01:26:45;21.80;16.40
2409;DHT22;8463;48.094;7.970;2022-08-01T01:32:04;21.80;16.40
2409;DHT22;8463;48.094;7.970;2022-08-01T01:34:35;21.80;16.30
2409;DHT22;8463;48.094;7.970;2022-08-01T01:37:03;21.80;16.40
2409;DHT22;8463;48.094;7.970;2022-08-01T01:39:30;21.80;16.40
2409;DHT22;8463;48.094;7.970;2022-08-01T01:41:57;21.80;16.70
2409;DHT22;8463;48.094;7.970;2022-08-01T01:44:25;21.80;16.60
2409;DHT22;8463;48.094;7.970;2022-08-01T01:46:51;21.90;16.40
2409;DHT22;8463;48.094;7.970;2022-08-01T01:49:21;21.80;16.40
2409;DHT22;8463;48.094;7.970;2022-08-01T01:51:50;21.80;16.70
2409;DHT22;8463;48.094;7.970;2022-08-01T01:54:17;21.70;16.90
2409;DHT22;8463;48.094;7.970;2022-08-01T01:56:44;21.70;17.10
2409;DHT22;8463;48.094;7.970;2022-08-01T01:59:24;21.70;17.00
2409;DHT22;8463;48.094;7.970;2022-08-01T02:01:51;21.70;17.20
2409;DHT22;8463;48.094;7.970;2022-08-01T02:04:20;21.70;16.90
2409;DHT22;8463;48.094;7.970;2022-08-01T02:06:46;21.60;17.00
2409;DHT22;8463;48.094;7.970;2022-08-01T02:09:19;21.70;17.10
2409;DHT22;8463;48.094;7.970;2022-08-01T02:11:49;21.60;16.80
2409;DHT22;8463;48.094;7.970;2022-08-01T02:14:17;21.50;17.10
2409;DHT22;8463;48.094;7.970;2022-08-01T02:16:46;21.40;17.70
2409;DHT22;8463;48.094;7.970;2022-08-01T02:19:14;21.30;18.00
2409;DHT22;8463;48.094;7.970;2022-08-01T02:21:54;21.20;18.00
2409;DHT22;8463;48.094;7.970;2022-08-01T02:24:27;21.20;18.70
2409;DHT22;8463;48.094;7.970;2022-08-01T02:26:54;21.20;18.70
2409;DHT22;8463;48.094;7.970;2022-08-01T02:29:26;21.20;18.40
2409;DHT22;8463;48.094;7.970;2022-08-01T02:31:54;21.30;18.40
2409;DHT22;8463;48.094;7.970;2022-08-01T02:34:21;21.30;18.30
2409;DHT22;8463;48.094;7.970;2022-08-01T02:36:48;21.30;17.90
2409;DHT22;8463;48.094;7.970;2022-08-01T02:39:16;21.20;18.40
2409;DHT22;8463;48.094;7.970;2022-08-01T02:41:48;21.10;18.70
2409;DHT22;8463;48.094;7.970;2022-08-01T02:44:23;21.10;18.30
2409;DHT22;8463;48.094;7.970;2022-08-01T02:46:56;21.10;18.70
2409;DHT22;8463;48.094;7.970;2022-08-01T02:49:24;20.90;19.20
2409;DHT22;8463;48.094;7.970;2022-08-01T02:51:53;20.80;18.80
2409;DHT22;8463;48.094;7.970;2022-08-01T02:54:21;20.80;18.80
2409;DHT22;8463;48.094;7.970;2022-08-01T02:56:48;20.80;18.50
2409;DHT22;8463;48.094;7.970;2022-08-01T02:59:18;20.90;18.50
2409;DHT22;8463;48.094;7.970;2022-08-01T03:01:45;20.90;18.50
2409;DHT22;8463;48.094;7.970;2022-08-01T03:04:12;20.90;18.50
2409;DHT22;8463;48.094;7.970;2022-08-01T03:06:40;20.90;18.50
2409;DHT22;8463;48.094;7.970;2022-08-01T03:09:06;20.90;19.20
2409;DHT22;8463;48.094;7.970;2022-08-01T03:11:35;20.90;18.90
2409;DHT22;8463;48.094;7.970;2022-08-01T03:14:05;20.90;18.90
2409;DHT22;8463;48.094;7.970;2022-08-01T03:16:33;20.80;19.00
2409;DHT22;8463;48.094;7.970;2022-08-01T03:19:01;20.80;19.30
2409;DHT22;8463;48.094;7.970;2022-08-01T03:21:28;20.70;19.50
2409;DHT22;8463;48.094;7.970;2022-08-01T03:23:56;20.60;20.60
2409;DHT22;8463;48.094;7.970;2022-08-01T03:26:34;20.50;20.60
2409;DHT22;8463;48.094;7.970;2022-08-01T03:29:04;20.40;21.30
2409;DHT22;8463;48.094;7.970;2022-08-01T03:31:36;20.30;20.60
2409;DHT22;8463;48.094;7.970;2022-08-01T03:34:04;20.30;20.90
2409;DHT22;8463;48.094;7.970;2022-08-01T03:36:32;20.30;21.20
2409;DHT22;8463;48.094;7.970;2022-08-01T03:39:01;20.30;21.40
2409;DHT22;8463;48.094;7.970;2022-08-01T03:41:32;20.30;21.30
2409;DHT22;8463;48.094;7.970;2022-08-01T03:44:06;20.40;21.00
2409;DHT22;8463;48.094;7.970;2022-08-01T03:46:38;20.40;20.90
2409;DHT22;8463;48.094;7.970;2022-08-01T03:49:10;20.30;21.30
2409;DHT22;8463;48.094;7.970;2022-08-01T03:51:38;20.30;22.00
2409;DHT22;8463;48.094;7.970;2022-08-01T03:54:05;20.20;21.90
2409;DHT22;8463;48.094;7.970;2022-08-01T03:56:38;20.10;21.80
2409;DHT22;8463;48.094;7.970;2022-08-01T03:59:05;20.00;21.80
2409;DHT22;8463;48.094;7.970;2022-08-01T04:01:31;19.90;22.60
2409;DHT22;8463;48.094;7.970;2022-08-01T04:03:59;20.00;23.00
2409;DHT22;8463;48.094;7.970;2022-08-01T04:06:25;20.00;22.80
2409;DHT22;8463;48.094;7.970;2022-08-01T04:08:51;19.90;22.60
2409;DHT22;8463;48.094;7.970;2022-08-01T04:11:27;19.90;23.20
2409;DHT22;8463;48.094;7.970;2022-08-01T04:13:54;19.80;23.00
2409;DHT22;8463;48.094;7.970;2022-08-01T04:16:20;19.70;23.50
2409;DHT22;8463;48.094;7.970;2022-08-01T04:18:46;19.70;23.70
2409;DHT22;8463;48.094;7.970;2022-08-01T04:21:13;19.80;23.80
2409;DHT22;8463;48.094;7.970;2022-08-01T04:23:40;19.70;23.50
2409;DHT22;8463;48.094;7.970;2022-08-01T04:26:08;19.60;24.00
2409;DHT22;8463;48.094;7.970;2022-08-01T04:28:36;19.60;23.80
2409;DHT22;8463;48.094;7.970;2022-08-01T04:31:05;19.70;24.20
2409;DHT22;8463;48.094;7.970;2022-08-01T04:33:33;19.80;23.80
2409;DHT22;8463;48.094;7.970;2022-08-01T04:36:02;19.80;23.60
2409;DHT22;8463;48.094;7.970;2022-08-01T04:38:32;19.80;24.00
2409;DHT22;8463;48.094;7.970;2022-08-01T04:40:59;19.90;24.20
2409;DHT22;8463;48.094;7.970;2022-08-01T04:43:26;19.90;23.80
2409;DHT22;8463;48.094;7.970;2022-08-01T04:45:52;19.90;24.20
2409;DHT22;8463;48.094;7.970;2022-08-01T04:48:19;20.00;23.70
2409;DHT22;8463;48.094;7.970;2022-08-01T04:50:47;20.00;23.90
2409;DHT22;8463;48.094;7.970;2022-08-01T04:53:14;19.90;23.50
2409;DHT22;8463;48.094;7.970;2022-08-01T04:55:39;20.00;23.70
2409;DHT22;8463;48.094;7.970;2022-08-01T04:58:05;19.90;23.60
2409;DHT22;8463;48.094;7.970;2022-08-01T05:00:31;19.80;23.50
2409;DHT22;8463;48.094;7.970;2022-08-01T05:02:59;19.80;24.00
2409;DHT22;8463;48.094;7.970;2022-08-01T05:05:24;19.80;24.10
2409;DHT22;8463;48.094;7.970;2022-08-01T05:07:51;19.80;24.10
2409;DHT22;8463;48.094;7.970;2022-08-01T05:10:17;19.80;23.90
2409;DHT22;8463;48.094;7.970;2022-08-01T05:12:42;19.80;23.90
2409;DHT22;8463;48.094;7.970;2022-08-01T05:15:10;19.70;24.30
2409;DHT22;8463;48.094;7.970;2022-08-01T05:17:36;19.80;24.50
2409;DHT22;8463;48.094;7.970;2022-08-01T05:20:02;19.90;24.20
2409;DHT22;8463;48.094;7.970;2022-08-01T05:22:27;20.00;24.20
2409;DHT22;8463;48.094;7.970;2022-08-01T05:24:53;20.20;24.00
2409;DHT22;8463;48.094;7.970;2022-08-01T05:27:19;20.40;23.40
2409;DHT22;8463;48.094;7.970;2022-08-01T05:29:44;20.50;23.20
2409;DHT22;8463;48.094;7.970;2022-08-01T05:32:10;20.70;22.80
2409;DHT22;8463;48.094;7.970;2022-08-01T05:34:36;20.70;22.30
2409;DHT22;8463;48.094;7.970;2022-08-01T05:37:01;20.80;22.40
2409;DHT22;8463;48.094;7.970;2022-08-01T05:39:28;20.90;22.40
2409;DHT22;8463;48.094;7.970;2022-08-01T05:41:53;20.90;22.40
2409;DHT22;8463;48.094;7.970;2022-08-01T05:44:19;21.10;22.20
2409;DHT22;8463;48.094;7.970;2022-08-01T05:46:45;21.20;21.90
2409;DHT22;8463;48.094;7.970;2022-08-01T05:49:11;21.20;21.70
2409;DHT22;8463;48.094;7.970;2022-08-01T05:51:40;21.20;21.60
2409;DHT22;8463;48.094;7.970;2022-08-01T05:54:05;21.30;21.50
2409;DHT22;8463;48.094;7.970;2022-08-01T05:56:31;21.50;21.20
2409;DHT22;8463;48.094;7.970;2022-08-01T05:58:57;21.80;20.70
2409;DHT22;8463;48.094;7.970;2022-08-01T06:01:22;21.90;20.10
2409;DHT22;8463;48.094;7.970;2022-08-01T06:03:48;21.90;19.80
2409;DHT22;8463;48.094;7.970;2022-08-01T06:06:14;22.00;19.60
2409;DHT22;8463;48.094;7.970;2022-08-01T06:08:40;22.10;19.40
2409;DHT22;8463;48.094;7.970;2022-08-01T06:11:06;22.20;20.10
2409;DHT22;8463;48.094;7.970;2022-08-01T06:13:32;22.40;19.70
2409;DHT22;8463;48.094;7.970;2022-08-01T06:15:57;22.60;19.80
2409;DHT22;8463;48.094;7.970;2022-08-01T06:18:24;22.70;19.60
2409;DHT22;8463;48.094;7.970;2022-08-01T06:20:49;22.90;19.00
2409;DHT22;8463;48.094;7.970;2022-08-01T06:23:15;23.10;18.50
2409;DHT22;8463;48.094;7.970;2022-08-01T06:25:42;23.20;18.40
2409;DHT22;8463;48.094;7.970;2022-08-01T06:28:08;23.40;17.70
2409;DHT22;8463;48.094;7.970;2022-08-01T06:30:33;23.60;17.70
2409;DHT22;8463;48.094;7.970;2022-08-01T06:32:59;23.80;17.20
2409;DHT22;8463;48.094;7.970;2022-08-01T06:35:27;24.00;16.90
2409;DHT22;8463;48.094;7.970;2022-08-01T06:37:55;24.20;16.20
2409;DHT22;8463;48.094;7.970;2022-08-01T06:40:21;24.20;15.90
2409;DHT22;8463;48.094;7.970;2022-08-01T06:42:47;24.30;15.80
2409;DHT22;8463;48.094;7.970;2022-08-01T06:45:13;24.30;15.80
2409;DHT22;8463;48.094;7.970;2022-08-01T06:47:41;24.40;15.80
2409;DHT22;8463;48.094;7.970;2022-08-01T06:50:08;24.50;15.70
2409;DHT22;8463;48.094;7.970;2022-08-01T06:52:35;24.50;16.00
2409;DHT22;8463;48.094;7.970;2022-08-01T06:55:04;24.50;15.60
2409;DHT22;8463;48.094;7.970;2022-08-01T06:57:29;24.60;15.90
2409;DHT22;8463;48.094;7.970;2022-08-01T06:59:55;24.80;14.80
2409;DHT22;8463;48.094;7.970;2022-08-01T07:02:22;25.00;14.60
2409;DHT22;8463;48.094;7.970;2022-08-01T07:04:47;25.20;13.80
2409;DHT22;8463;48.094;7.970;2022-08-01T07:07:13;25.30;15.00
2409;DHT22;8463;48.094;7.970;2022-08-01T07:09:39;25.50;14.00
2409;DHT22;8463;48.094;7.970;2022-08-01T07:12:08;25.70;13.60
2409;DHT22;8463;48.094;7.970;2022-08-01T07:14:34;25.80;13.10
2409;DHT22;8463;48.094;7.970;2022-08-01T07:17:00;26.10;12.80
2409;DHT22;8463;48.094;7.970;2022-08-01T07:19:26;26.20;11.70
2409;DHT22;8463;48.094;7.970;2022-08-01T07:21:52;26.40;11.20
2409;DHT22;8463;48.094;7.970;2022-08-01T07:24:17;26.60;11.90
2409;DHT22;8463;48.094;7.970;2022-08-01T07:26:45;26.80;10.70
2409;DHT22;8463;48.094;7.970;2022-08-01T07:29:11;26.60;11.10
2409;DHT22;8463;48.094;7.970;2022-08-01T07:31:37;26.70;10.50
2409;DHT22;8463;48.094;7.970;2022-08-01T07:34:02;26.70;11.30
2409;DHT22;8463;48.094;7.970;2022-08-01T07:36:28;26.90;10.00
2409;DHT22;8463;48.094;7.970;2022-08-01T07:38:54;27.00;10.30
2409;DHT22;8463;48.094;7.970;2022-08-01T07:41:20;26.90;9.50
2409;DHT22;8463;48.094;7.970;2022-08-01T07:43:46;27.10;9.00
2409;DHT22;8463;48.094;7.970;2022-08-01T07:46:14;27.30;7.90
2409;DHT22;8463;48.094;7.970;2022-08-01T07:48:40;27.40;7.20
2409;DHT22;8463;48.094;7.970;2022-08-01T07:51:05;27.50;6.90
2409;DHT22;8463;48.094;7.970;2022-08-01T07:53:31;27.40;6.80
2409;DHT22;8463;48.094;7.970;2022-08-01T07:55:56;26.90;7.10
2409;DHT22;8463;48.094;7.970;2022-08-01T07:58:22;26.50;8.20
2409;DHT22;8463;48.094;7.970;2022-08-01T08:00:48;26.70;9.50
2409;DHT22;8463;48.094;7.970;2022-08-01T08:03:13;26.70;8.00
2409;DHT22;8463;48.094;7.970;2022-08-01T08:05:39;26.50;8.70
2409;DHT22;8463;48.094;7.970;2022-08-01T08:08:05;26.40;10.40
2409;DHT22;8463;48.094;7.970;2022-08-01T08:10:32;26.50;8.60
2409;DHT22;8463;48.094;7.970;2022-08-01T08:12:57;26.70;9.20
2409;DHT22;8463;48.094;7.970;2022-08-01T08:15:23;26.60;8.50
2409;DHT22;8463;48.094;7.970;2022-08-01T08:17:49;26.40;8.80
2409;DHT22;8463;48.094;7.970;2022-08-01T08:20:14;26.70;8.40
2409;DHT22;8463;48.094;7.970;2022-08-01T08:22:40;26.70;7.10
2409;DHT22;8463;48.094;7.970;2022-08-01T08:25:06;26.90;7.50
2409;DHT22;8463;48.094;7.970;2022-08-01T08:27:32;27.00;7.30
2409;DHT22;8463;48.094;7.970;2022-08-01T08:29:58;26.70;7.30
2409;DHT22;8463;48.094;7.970;2022-08-01T08:32:24;26.70;7.70
2409;DHT22;8463;48.094;7.970;2022-08-01T08:34:49;26.70;8.00
2409;DHT22;8463;48.094;7.970;2022-08-01T08:37:15;26.80;8.10
2409;DHT22;8463;48.094;7.970;2022-08-01T08:39:42;26.80;6.50
2409;DHT22;8463;48.094;7.970;2022-08-01T08:42:09;26.90;7.80
2409;DHT22;8463;48.094;7.970;2022-08-01T08:44:35;27.00;6.60
2409;DHT22;8463;48.094;7.970;2022-08-01T08:47:02;27.10;5.50
2409;DHT22;8463;48.094;7.970;2022-08-01T08:49:31;27.40;5.10
2409;DHT22;8463;48.094;7.970;2022-08-01T08:51:59;27.60;5.50
2409;DHT22;8463;48.094;7.970;2022-08-01T08:54:25;27.30;4.20
2409;DHT22;8463;48.094;7.970;2022-08-01T08:56:53;27.20;2.50
2409;DHT22;8463;48.094;7.970;2022-08-01T08:59:19;27.10;4.20
2409;DHT22;8463;48.094;7.970;2022-08-01T09:01:45;27.20;4.20
2409;DHT22;8463;48.094;7.970;2022-08-01T09:04:11;27.30;3.30
2409;DHT22;8463;48.094;7.970;2022-08-01T09:06:37;27.40;2.60
2409;DHT22;8463;48.094;7.970;2022-08-01T09:09:03;27.30;3.00
2409;DHT22;8463;48.094;7.970;2022-08-01T09:11:29;27.30;4.10
2409;DHT22;8463;48.094;7.970;2022-08-01T09:14:03;27.40;4.30
2409;DHT22;8463;48.094;7.970;2022-08-01T09:16:29;27.80;4.10
2409;DHT22;8463;48.094;7.970;2022-08-01T09:19:16;27.90;3.20
2409;DHT22;8463;48.094;7.970;2022-08-01T09:22:02;27.80;3.20
2409;DHT22;8463;48.094;7.970;2022-08-01T09:24:32;27.80;2.80
2409;DHT22;8463;48.094;7.970;2022-08-01T09:26:59;27.70;3.80
2409;DHT22;8463;48.094;7.970;2022-08-01T09:29:28;28.10;3.00
2409;DHT22;8463;48.094;7.970;2022-08-01T09:31:55;28.00;2.90
2409;DHT22;8463;48.094;7.970;2022-08-01T09:34:29;27.90;2.90
2409;DHT22;8463;48.094;7.970;2022-08-01T09:36:58;27.80;2.80
2409;DHT22;8463;48.094;7.970;2022-08-01T09:39:30;27.80;2.80
2409;DHT22;8463;48.094;7.970;2022-08-01T09:41:58;28.10;2.00
2409;DHT22;8463;48.094;7.970;2022-08-01T09:44:44;28.20;1.90
2409;DHT22;8463;48.094;7.970;2022-08-01T09:47:13;28.60;1.70
2409;DHT22;8463;48.094;7.970;2022-08-01T09:49:40;28.40;1.20
2409;DHT22;8463;48.094;7.970;2022-08-01T09:52:16;28.30;2.10
2409;DHT22;8463;48.094;7.970;2022-08-01T09:54:44;28.20;2.30
2409;DHT22;8463;48.094;7.970;2022-08-01T09:57:19;28.50;2.20
2409;DHT22;8463;48.094;7.970;2022-08-01T09:59:50;28.60;1.00
2409;DHT22;8463;48.094;7.970;2022-08-01T10:02:33;28.50;1.70
2409;DHT22;8463;48.094;7.970;2022-08-01T10:05:00;28.70;1.60
2409;DHT22;8463;48.094;7.970;2022-08-01T10:07:26;28.70;1.60
2409;DHT22;8463;48.094;7.970;2022-08-01T10:09:51;28.80;1.20
2409;DHT22;8463;48.094;7.970;2022-08-01T10:12:20;29.10;1.00
2409;DHT22;8463;48.094;7.970;2022-08-01T10:14:48;29.30;1.60
2409;DHT22;8463;48.094;7.970;2022-08-01T10:17:16;29.50;1.00
2409;DHT22;8463;48.094;7.970;2022-08-01T10:19:43;29.20;1.00
2409;DHT22;8463;48.094;7.970;2022-08-01T10:22:12;29.00;1.00
2409;DHT22;8463;48.094;7.970;2022-08-01T10:24:44;28.80;1.00
2409;DHT22;8463;48.094;7.970;2022-08-01T10:27:14;29.00;1.00
2409;DHT22;8463;48.094;7.970;2022-08-01T10:29:51;29.50;1.00
2409;DHT22;8463;48.094;7.970;2022-08-01T10:32:20;30.10;1.00
2409;DHT22;8463;48.094;7.970;2022-08-01T10:34:48;30.50;1.00
2409;DHT22;8463;48.094;7.970;2022-08-01T10:37:14;30.80;1.00
2409;DHT22;8463;48.094;7.970;2022-08-01T10:39:40;30.20;1.00
2409;DHT22;8463;48.094;7.970;2022-08-01T10:42:06;30.30;1.00
2409;DHT22;8463;48.094;7.970;2022-08-01T10:44:35;30.60;1.00
2409;DHT22;8463;48.094;7.970;2022-08-01T10:47:10;30.70;1.00
2409;DHT22;8463;48.094;7.970;2022-08-01T10:49:45;30.80;1.00
2409;DHT22;8463;48.094;7.970;2022-08-01T10:52:16;30.40;1.00
2409;DHT22;8463;48.094;7.970;2022-08-01T10:54:43;30.10;1.00
2409;DHT22;8463;48.094;7.970;2022-08-01T10:57:08;30.40;1.00
2409;DHT22;8463;48.094;7.970;2022-08-01T10:59:36;30.60;1.00
2409;DHT22;8463;48.094;7.970;2022-08-01T11:02:29;30.20;1.00
2409;DHT22;8463;48.094;7.970;2022-08-01T11:05:00;29.60;1.00
2409;DHT22;8463;48.094;7.970;2022-08-01T11:07:42;29.70;1.00
2409;DHT22;8463;48.094;7.970;2022-08-01T11:12:43;29.90;1.00
2409;DHT22;8463;48.094;7.970;2022-08-01T11:17:43;30.30;1.00
2409;DHT22;8463;48.094;7.970;2022-08-01T11:41:11;30.90;1.00
2409;DHT22;8463;48.094;7.970;2022-08-01T11:52:16;30.80;1.00
2409;DHT22;8463;48.094;7.970;2022-08-01T11:54:55;30.90;1.00
2409;DHT22;8463;48.094;7.970;2022-08-01T11:57:29;30.70;1.00
2409;DHT22;8463;48.094;7.970;2022-08-01T11:59:59;31.00;1.00
2409;DHT22;8463;48.094;7.970;2022-08-01T12:07:26;31.20;1.00
2409;DHT22;8463;48.094;7.970;2022-08-01T12:10:00;31.60;1.00
2409;DHT22;8463;48.094;7.970;2022-08-01T12:12:27;32.10;1.00
2409;DHT22;8463;48.094;7.970;2022-08-01T12:14:59;32.10;1.00
2409;DHT22;8463;48.094;7.970;2022-08-01T12:17:33;31.40;1.00
2409;DHT22;8463;48.094;7.970;2022-08-01T12:19:59;31.30;1.00
2409;DHT22;8463;48.094;7.970;2022-08-01T12:22:26;31.20;1.00
2409;DHT22;8463;48.094;7.970;2022-08-01T12:24:52;31.10;1.00
2409;DHT22;8463;48.094;7.970;2022-08-01T12:27:28;31.10;1.00
2409;DHT22;8463;48.094;7.970;2022-08-01T12:29:55;31.20;1.00
2409;DHT22;8463;48.094;7.970;2022-08-01T12:32:32;30.70;1.00
2409;DHT22;8463;48.094;7.970;2022-08-01T12:37:35;30.60;1.00
2409;DHT22;8463;48.094;7.970;2022-08-01T12:40:08;30.80;1.00
2409;DHT22;8463;48.094;7.970;2022-08-01T12:42:37;30.70;1.00
2409;DHT22;8463;48.094;7.970;2022-08-01T12:45:05;30.70;1.00
2409;DHT22;8463;48.094;7.970;2022-08-01T12:47:32;30.60;1.00
2409;DHT22;8463;48.094;7.970;2022-08-01T12:49:58;30.70;1.00
2409;DHT22;8463;48.094;7.970;2022-08-01T12:52:24;31.40;1.00
2409;DHT22;8463;48.094;7.970;2022-08-01T12:55:08;31.80;1.00
2409;DHT22;8463;48.094;7.970;2022-08-01T12:57:35;32.40;1.00
2409;DHT22;8463;48.094;7.970;2022-08-01T13:02:38;31.70;1.00
2409;DHT22;8463;48.094;7.970;2022-08-01T13:05:04;31.40;1.00
2409;DHT22;8463;48.094;7.970;2022-08-01T13:07:42;31.00;1.00
2409;DHT22;8463;48.094;7.970;2022-08-01T13:10:08;30.80;1.00
2409;DHT22;8463;48.094;7.970;2022-08-01T13:12:35;30.50;1.00
2409;DHT22;8463;48.094;7.970;2022-08-01T13:15:34;30.90;1.00
2409;DHT22;8463;48.094;7.970;2022-08-01T13:18:21;31.30;1.00
2409;DHT22;8463;48.094;7.970;2022-08-01T13:20:47;31.20;1.00
2409;DHT22;8463;48.094;7.970;2022-08-01T13:23:18;31.30;1.00
2409;DHT22;8463;48.094;7.970;2022-08-01T13:25:52;31.20;1.00
2409;DHT22;8463;48.094;7.970;2022-08-01T13:28:21;31.10;1.00
2409;DHT22;8463;48.094;7.970;2022-08-01T13:31:01;31.00;1.00
2409;DHT22;8463;48.094;7.970;2022-08-01T13:33:39;31.00;1.00
2409;DHT22;8463;48.094;7.970;2022-08-01T13:36:09;31.00;1.00
2409;DHT22;8463;48.094;7.970;2022-08-01T13:38:34;31.00;1.00
2409;DHT22;8463;48.094;7.970;2022-08-01T13:41:19;31.00;1.00
2409;DHT22;8463;48.094;7.970;2022-08-01T13:43:44;31.00;1.00
2409;DHT22;8463;48.094;7.970;2022-08-01T13:46:10;30.90;1.00
2409;DHT22;8463;48.094;7.970;2022-08-01T13:48:36;31.30;1.00
2409;DHT22;8463;48.094;7.970;2022-08-01T13:51:01;31.80;1.00
2409;DHT22;8463;48.094;7.970;2022-08-01T13:53:27;32.10;1.00
2409;DHT22;8463;48.094;7.970;2022-08-01T13:55:53;31.90;1.00
2409;DHT22;8463;48.094;7.970;2022-08-01T13:58:19;31.50;1.00
2409;DHT22;8463;48.094;7.970;2022-08-01T14:00:44;31.30;1.00
2409;DHT22;8463;48.094;7.970;2022-08-01T14:03:11;31.00;1.00
2409;DHT22;8463;48.094;7.970;2022-08-01T14:05:37;31.30;1.00
2409;DHT22;8463;48.094;7.970;2022-08-01T14:08:03;31.30;1.00
2409;DHT22;8463;48.094;7.970;2022-08-01T14:10:29;31.20;1.00
2409;DHT22;8463;48.094;7.970;2022-08-01T14:12:55;31.20;1.00
2409;DHT22;8463;48.094;7.970;2022-08-01T14:15:23;31.20;1.00
2409;DHT22;8463;48.094;7.970;2022-08-01T14:17:49;31.00;1.00
2409;DHT22;8463;48.094;7.970;2022-08-01T14:20:14;30.80;1.00
2409;DHT22;8463;48.094;7.970;2022-08-01T14:22:40;30.80;1.00
2409;DHT22;8463;48.094;7.970;2022-08-01T14:25:06;30.70;1.00
2409;DHT22;8463;48.094;7.970;2022-08-01T14:27:33;30.70;1.00
2409;DHT22;8463;48.094;7.970;2022-08-01T14:30:02;30.80;1.00
2409;DHT22;8463;48.094;7.970;2022-08-01T14:32:28;30.90;1.00
2409;DHT22;8463;48.094;7.970;2022-08-01T14:34:54;31.10;1.00
2409;DHT22;8463;48.094;7.970;2022-08-01T14:37:21;31.20;1.00
2409;DHT22;8463;48.094;7.970;2022-08-01T14:39:46;30.80;1.00
2409;DHT22;8463;48.094;7.970;2022-08-01T14:42:12;30.60;1.00
2409;DHT22;8463;48.094;7.970;2022-08-01T14:44:38;30.60;1.00
2409;DHT22;8463;48.094;7.970;2022-08-01T14:47:04;30.80;1.00
2409;DHT22;8463;48.094;7.970;2022-08-01T14:49:30;31.10;1.00
2409;DHT22;8463;48.094;7.970;2022-08-01T14:51:55;31.40;1.00
2409;DHT22;8463;48.094;7.970;2022-08-01T14:54:21;31.50;1.00
2409;DHT22;8463;48.094;7.970;2022-08-01T14:56:47;30.90;1.00
2409;DHT22;8463;48.094;7.970;2022-08-01T14:59:13;30.80;1.00
2409;DHT22;8463;48.094;7.970;2022-08-01T15:01:44;30.70;1.00
2409;DHT22;8463;48.094;7.970;2022-08-01T15:04:10;30.40;1.00
2409;DHT22;8463;48.094;7.970;2022-08-01T15:06:36;30.30;1.00
2409;DHT22;8463;48.094;7.970;2022-08-01T15:09:02;30.20;1.00
2409;DHT22;8463;48.094;7.970;2022-08-01T15:11:28;30.20;1.00
2409;DHT22;8463;48.094;7.970;2022-08-01T15:13:53;30.20;1.00
2409;DHT22;8463;48.094;7.970;2022-08-01T15:16:42;30.20;1.00
2409;DHT22;8463;48.094;7.970;2022-08-01T15:19:08;30.10;1.00
2409;DHT22;8463;48.094;7.970;2022-08-01T15:21:33;30.10;1.00
2409;DHT22;8463;48.094;7.970;2022-08-01T15:23:59;30.00;1.00
2409;DHT22;8463;48.094;7.970;2022-08-01T15:26:25;30.00;1.00
2409;DHT22;8463;48.094;7.970;2022-08-01T15:28:50;29.90;1.00
2409;DHT22;8463;48.094;7.970;2022-08-01T15:31:17;29.90;1.00
2409;DHT22;8463;48.094;7.970;2022-08-01T15:33:42;30.00;1.00
2409;DHT22;8463;48.094;7.970;2022-08-01T15:36:08;30.10;1.00
2409;DHT22;8463;48.094;7.970;2022-08-01T15:38:34;30.10;1.00
2409;DHT22;8463;48.094;7.970;2022-08-01T15:40:59;30.20;1.00
2409;DHT22;8463;48.094;7.970;2022-08-01T15:43:25;30.20;1.00
2409;DHT22;8463;48.094;7.970;2022-08-01T15:45:50;30.30;1.00
2409;DHT22;8463;48.094;7.970;2022-08-01T15:48:16;30.30;1.00
2409;DHT22;8463;48.094;7.970;2022-08-01T15:50:42;30.40;1.00
2409;DHT22;8463;48.094;7.970;2022-08-01T15:53:08;30.40;1.00
2409;DHT22;8463;48.094;7.970;2022-08-01T15:55:37;30.40;1.00
2409;DHT22;8463;48.094;7.970;2022-08-01T15:58:03;30.50;1.00
2409;DHT22;8463;48.094;7.970;2022-08-01T16:00:29;30.40;1.00
2409;DHT22;8463;48.094;7.970;2022-08-01T16:02:55;30.30;1.00
2409;DHT22;8463;48.094;7.970;2022-08-01T16:05:22;30.30;1.00
2409;DHT22;8463;48.094;7.970;2022-08-01T16:07:47;30.20;1.00
2409;DHT22;8463;48.094;7.970;2022-08-01T16:10:13;30.00;1.00
2409;DHT22;8463;48.094;7.970;2022-08-01T16:12:39;29.80;1.00
2409;DHT22;8463;48.094;7.970;2022-08-01T16:15:05;29.60;1.00
2409;DHT22;8463;48.094;7.970;2022-08-01T16:17:31;29.40;1.00
2409;DHT22;8463;48.094;7.970;2022-08-01T16:19:56;29.30;1.00
2409;DHT22;8463;48.094;7.970;2022-08-01T16:22:22;29.30;1.00
2409;DHT22;8463;48.094;7.970;2022-08-01T16:24:48;29.30;1.00
2409;DHT22;8463;48.094;7.970;2022-08-01T16:27:14;29.30;1.00
2409;DHT22;8463;48.094;7.970;2022-08-01T16:29:39;29.20;1.00
2409;DHT22;8463;48.094;7.970;2022-08-01T16:32:05;29.30;1.00
2409;DHT22;8463;48.094;7.970;2022-08-01T16:34:31;29.20;1.00
2409;DHT22;8463;48.094;7.970;2022-08-01T16:36:57;29.20;1.00
2409;DHT22;8463;48.094;7.970;2022-08-01T16:39:23;29.20;1.30
2409;DHT22;8463;48.094;7.970;2022-08-01T16:41:49;29.20;1.00
2409;DHT22;8463;48.094;7.970;2022-08-01T16:44:14;29.20;1.10
2409;DHT22;8463;48.094;7.970;2022-08-01T16:46:40;29.20;1.60
2409;DHT22;8463;48.094;7.970;2022-08-01T16:49:06;29.10;2.60
2409;DHT22;8463;48.094;7.970;2022-08-01T16:51:32;29.00;3.50
2409;DHT22;8463;48.094;7.970;2022-08-01T16:53:59;29.00;3.50
2409;DHT22;8463;48.094;7.970;2022-08-01T16:56:25;28.90;2.70
2409;DHT22;8463;48.094;7.970;2022-08-01T16:58:50;28.70;2.70
2409;DHT22;8463;48.094;7.970;2022-08-01T17:01:17;28.60;2.90
2409;DHT22;8463;48.094;7.970;2022-08-01T17:03:43;28.50;3.30
2409;DHT22;8463;48.094;7.970;2022-08-01T17:06:10;28.40;3.20
2409;DHT22;8463;48.094;7.970;2022-08-01T17:08:35;28.40;3.20
2409;DHT22;8463;48.094;7.970;2022-08-01T17:11:01;28.40;3.70